Time;durP1;ratioP1;P1;durP2;ratioP2;P2;SDS_P1;SDS_P2;PMS_P1;PMS_P2;Temp;Humidity;BMP_temperature;BMP_pressure;BME280_temperature;BME280_humidity;BME280_pressure;Samples;Min_cycle;Max_cycle;Signal;HPM_P1;HPM_P2
2022/11/08 00:01:37;;;;;;;71.38;39.78;;;;;;;12.27;72.10;95664.63;5050882;28;20087;-78
2022/11/08 00:04:05;;;;;;;68.65;39.28;;;;;;;12.56;72.02;95708.16;5050377;28;20550;-78
2022/11/08 00:16:49;;;;;;;74.05;38.38;;;;;;;12.35;72.95;95674.72;5006459;27;2195211;-78
2022/11/08 00:19:15;;;;;;;71.72;40.00;;;;;;;12.23;73.37;95659.06;5085386;28;20107;-78
2022/11/08 00:21:40;;;;;;;71.55;39.55;;;;;;;12.23;73.41;95658.25;5070506;28;20033;-78
2022/11/08 00:24:06;;;;;;;75.97;39.05;;;;;;;12.25;73.63;95656.94;5083094;28;20032;-78
2022/11/08 00:26:31;;;;;;;70.40;39.60;;;;;;;12.31;73.33;95663.00;5086244;28;20020;-78
2022/11/08 00:28:57;;;;;;;73.75;39.65;;;;;;;12.33;73.87;95660.88;5087507;28;20028;-78
2022/11/08 00:31:23;;;;;;;69.00;36.90;;;;;;;12.21;73.46;95645.22;5085691;28;20107;-78
2022/11/08 00:33:49;;;;;;;76.60;39.13;;;;;;;12.56;73.70;95694.84;5087351;28;20032;-78
2022/11/08 00:36:16;;;;;;;82.07;40.00;;;;;;;12.55;73.54;95700.44;5069781;28;20132;-78
2022/11/08 00:38:43;;;;;;;75.65;39.67;;;;;;;12.19;73.48;95678.50;5082862;28;20035;-77
2022/11/08 00:41:09;;;;;;;68.90;38.40;;;;;;;12.43;73.27;95707.94;5070523;28;20036;-78
2022/11/08 00:43:34;;;;;;;72.40;38.38;;;;;;;11.98;73.34;95643.19;5066709;28;20036;-78
2022/11/08 00:46:00;;;;;;;71.70;38.55;;;;;;;12.26;73.41;95674.47;5066859;28;20120;-78
2022/11/08 00:48:26;;;;;;;76.55;38.95;;;;;;;12.17;73.75;95664.66;5081291;28;20166;-78
2022/11/08 00:50:51;;;;;;;68.63;37.78;;;;;;;12.42;73.68;95703.69;5085830;28;20028;-77
2022/11/08 00:53:17;;;;;;;73.97;39.40;;;;;;;12.37;73.49;95699.97;5071340;28;20036;-78
2022/11/08 00:55:42;;;;;;;71.85;40.60;;;;;;;12.27;73.18;95702.66;5064778;28;20452;-79
2022/11/08 00:58:08;;;;;;;71.78;38.00;;;;;;;11.93;73.47;95635.22;5079334;28;20024;-79
2022/11/08 01:00:33;;;;;;;68.53;38.63;;;;;;;12.36;73.15;95694.91;5085775;28;20627;-77
2022/11/08 01:05:43;;;;;;;62.13;37.38;;;;;;;12.41;73.26;95694.91;5087558;28;20174;-76
2022/11/08 01:08:09;;;;;;;74.38;38.10;;;;;;;12.12;73.66;95656.72;5087302;28;20032;-76
2022/11/08 01:10:34;;;;;;;71.25;38.33;;;;;;;12.28;73.63;95684.84;5068599;28;20047;-76
2022/11/08 01:13:00;;;;;;;80.88;39.88;;;;;;;12.15;73.45;95662.28;5083132;28;20032;-76
2022/11/08 01:15:25;;;;;;;72.88;37.40;;;;;;;12.42;73.95;95703.69;5085524;28;20052;-76
2022/11/08 01:17:51;;;;;;;69.25;37.75;;;;;;;12.04;73.49;95647.44;5068344;28;20037;-76
2022/11/08 01:20:16;;;;;;;73.85;39.47;;;;;;;12.07;73.59;95648.75;5065421;28;20483;-76
2022/11/08 01:22:42;;;;;;;73.93;40.08;;;;;;;11.98;73.35;95629.88;5066897;28;20033;-76
2022/11/08 01:25:07;;;;;;;74.28;40.58;;;;;;;12.41;73.26;95699.44;5081809;28;20052;-76
2022/11/08 01:27:33;;;;;;;85.45;41.90;;;;;;;12.25;73.66;95675.53;5075585;28;20123;-76
2022/11/08 01:29:58;;;;;;;70.18;38.30;;;;;;;12.14;73.40;95666.00;5071819;28;20032;-76
2022/11/08 01:32:24;;;;;;;68.65;38.05;;;;;;;11.96;73.32;95629.38;5072180;28;20513;-76
2022/11/08 01:34:49;;;;;;;71.32;38.70;;;;;;;12.33;73.23;95693.59;5060322;28;20032;-76
2022/11/08 01:37:14;;;;;;;73.50;40.58;;;;;;;12.36;73.48;95690.38;5067821;28;20033;-76
2022/11/08 01:39:40;;;;;;;80.85;39.45;;;;;;;12.22;73.35;95673.41;5073384;28;20371;-76
2022/11/08 01:42:05;;;;;;;70.05;39.00;;;;;;;12.01;73.58;95640.00;5073218;28;20107;-76
2022/11/08 01:44:30;;;;;;;74.45;39.53;;;;;;;11.92;73.37;95630.97;5071483;28;20036;-76
2022/11/08 01:46:56;;;;;;;65.93;38.53;;;;;;;12.33;73.29;95698.91;5057334;28;20553;-76
2022/11/08 01:49:23;;;;;;;77.70;42.13;;;;;;;12.31;73.31;95701.03;5053598;28;20032;-76
2022/11/08 01:52:05;;;;;;;78.90;40.63;;;;;;;12.32;73.67;95693.88;5052961;28;20029;-76
2022/11/08 01:54:47;;;;;;;79.28;40.65;;;;;;;12.36;73.22;95693.03;5067102;28;20541;-76
2022/11/08 01:57:16;;;;;;;75.85;38.97;;;;;;;12.15;73.08;95664.13;5053830;28;20071;-77
2022/11/08 01:59:46;;;;;;;75.53;40.15;;;;;;;12.18;72.73;95677.69;5067878;28;20033;-76
2022/11/08 02:02:12;;;;;;;84.35;40.13;;;;;;;12.21;72.99;95693.09;5067992;28;20078;-77
2022/11/08 02:04:40;;;;;;;79.72;43.85;;;;;;;12.10;73.19;95682.78;5071127;28;20071;-76
2022/11/08 02:07:06;;;;;;;87.75;43.50;;;;;;;12.21;72.59;95703.72;5072794;28;20029;-76
2022/11/08 02:09:34;;;;;;;79.85;41.97;;;;;;;12.08;72.83;95698.19;5072689;28;20032;-76
2022/11/08 02:12:01;;;;;;;79.47;42.10;;;;;;;12.01;72.91;95671.88;5055673;28;20037;-76
2022/11/08 02:14:27;;;;;;;77.55;40.05;;;;;;;12.00;72.28;95662.31;5066795;28;20029;-77
2022/11/08 02:16:52;;;;;;;76.90;42.47;;;;;;;11.99;72.70;95668.69;5092667;28;20032;-76
2022/11/08 02:19:34;;;;;;;83.45;41.47;;;;;;;12.27;72.70;95697.34;5092664;28;20525;-77
2022/11/08 02:22:04;;;;;;;78.60;40.45;;;;;;;11.16;72.63;95515.06;5074181;28;20036;-76
2022/11/08 02:24:29;;;;;;;82.72;43.40;;;;;;;11.85;72.35;95628.59;5092657;28;20039;-76
2022/11/08 02:26:55;;;;;;;84.68;41.05;;;;;;;12.16;72.70;95666.53;5056120;28;20115;-76
2022/11/08 02:29:33;;;;;;;79.85;41.17;;;;;;;11.93;72.38;95633.38;5090948;28;20512;-76
2022/11/08 02:32:00;;;;;;;68.78;38.38;;;;;;;12.34;72.43;95697.06;5053260;28;20095;-76
2022/11/08 02:34:33;;;;;;;68.07;39.05;;;;;;;12.26;72.20;95684.31;5074094;28;20036;-76
2022/11/08 02:37:00;;;;;;;73.40;41.38;;;;;;;12.07;72.62;95659.38;5092674;28;20047;-76
2022/11/08 02:39:27;;;;;;;75.60;39.40;;;;;;;12.02;72.59;95652.22;5090984;28;20097;-76
2022/11/08 02:41:53;;;;;;;73.05;40.97;;;;;;;12.17;72.65;95685.94;5092081;28;20497;-76
2022/11/08 02:44:18;;;;;;;75.95;40.47;;;;;;;12.23;72.71;95703.47;5073858;28;20085;-76
2022/11/08 02:46:44;;;;;;;72.75;41.53;;;;;;;11.77;72.75;95626.50;5072072;28;20421;-76
2022/11/08 02:49:10;;;;;;;73.22;41.13;;;;;;;12.30;72.28;95701.31;5053934;28;20037;-76
2022/11/08 02:51:35;;;;;;;78.68;43.00;;;;;;;12.30;72.16;95690.66;5054761;28;20102;-76
2022/11/08 02:54:01;;;;;;;80.57;43.08;;;;;;;12.02;72.10;95644.25;5073765;28;20042;-76
2022/11/08 02:56:31;;;;;;;73.05;40.38;;;;;;;12.14;72.19;95652.69;5073420;28;20039;-78
2022/11/08 02:58:56;;;;;;;76.15;42.22;;;;;;;11.90;71.96;95625.16;5072933;28;20040;-77
2022/11/08 03:01:21;;;;;;;73.43;40.22;;;;;;;12.27;72.04;95686.72;5072019;28;20507;-77
2022/11/08 03:03:47;;;;;;;73.97;42.70;;;;;;;12.19;71.72;95671.31;5054077;28;20036;-76
2022/11/08 03:06:12;;;;;;;78.30;42.75;;;;;;;12.18;72.01;95661.75;5091432;28;20068;-77
2022/11/08 03:08:38;;;;;;;79.63;41.75;;;;;;;11.76;72.05;95595.66;5073842;28;20131;-77
2022/11/08 03:11:03;;;;;;;82.47;42.50;;;;;;;12.01;71.87;95636.53;5092059;28;20035;-77
2022/11/08 03:13:29;;;;;;;81.70;43.28;;;;;;;12.08;71.99;95645.00;5073570;28;20074;-77
2022/11/08 03:15:54;;;;;;;75.88;41.63;;;;;;;12.42;72.05;95707.13;5091698;28;20102;-77
2022/11/08 03:18:20;;;;;;;77.45;41.50;;;;;;;12.27;71.93;95681.41;5073455;28;20044;-77
2022/11/08 03:20:45;;;;;;;75.40;41.47;;;;;;;12.47;71.83;95706.31;5073605;28;20040;-77
2022/11/08 03:23:10;;;;;;;72.78;41.42;;;;;;;12.23;72.00;95680.34;5073737;28;20052;-77
2022/11/08 03:25:36;;;;;;;81.65;42.38;;;;;;;12.50;71.92;95705.78;5091814;28;20032;-77
2022/11/08 03:28:06;;;;;;;75.90;40.33;;;;;;;12.50;71.84;95705.78;5091470;28;20043;-77
2022/11/08 03:30:33;;;;;;;71.22;40.75;;;;;;;12.45;71.75;95703.13;5091653;28;20482;-77
2022/11/08 03:32:59;;;;;;;78.72;44.78;;;;;;;12.18;71.90;95659.09;5091570;28;20491;-77
2022/11/08 03:35:24;;;;;;;82.40;42.80;;;;;;;12.20;71.87;95664.94;5055066;28;20047;-77
2022/11/08 03:37:50;;;;;;;91.07;45.90;;;;;;;12.20;72.31;95672.91;5088993;28;20597;-77
2022/11/08 03:40:16;;;;;;;106.03;49.25;;;;;;;12.20;73.56;95664.94;5072672;28;20025;-77
2022/11/08 03:42:42;;;;;;;94.60;46.42;;;;;;;12.09;74.39;95655.38;5070897;28;20139;-77
2022/11/08 03:45:07;;;;;;;87.95;46.15;;;;;;;12.22;75.50;95692.03;5090789;28;20176;-77
2022/11/08 03:47:41;;;;;;;87.80;45.35;;;;;;;12.36;76.06;95714.31;5090771;28;20042;-77
2022/11/08 03:50:07;;;;;;;89.05;47.42;;;;;;;12.19;76.45;95681.94;5071874;28;20526;-78
2022/11/08 03:52:40;;;;;;;99.53;46.75;;;;;;;12.31;77.16;95718.88;5090699;28;20035;-78
2022/11/08 03:55:07;;;;;;;87.40;45.53;;;;;;;12.06;77.59;95677.19;5071125;28;20032;-78
2022/11/08 03:57:33;;;;;;;94.43;49.10;;;;;;;12.19;77.69;95697.91;5090078;28;20036;-77
2022/11/08 03:59:58;;;;;;;89.68;47.47;;;;;;;12.07;77.63;95691.28;5072221;28;20031;-77
2022/11/08 04:02:24;;;;;;;98.03;48.88;;;;;;;11.61;78.52;95635.53;5072251;28;20071;-77
2022/11/08 04:04:49;;;;;;;84.85;47.00;;;;;;;11.89;78.30;95672.19;5091086;28;20024;-77
2022/11/08 04:07:14;;;;;;;86.45;47.53;;;;;;;11.64;78.57;95640.31;5072233;28;20029;-77
2022/11/08 04:09:40;;;;;;;88.82;47.30;;;;;;;11.42;79.60;95615.91;5070133;28;20039;-77
2022/11/08 04:23:03;;;;;;;88.55;47.83;;;;;;;11.57;79.09;95655.75;5083366;28;20078;-77
2022/11/08 04:25:28;;;;;;;92.30;48.25;;;;;;;11.27;79.97;95616.72;5059574;28;20024;-77
2022/11/08 04:27:54;;;;;;;100.72;52.42;;;;;;;11.41;80.32;95625.75;5083858;28;20032;-77
2022/11/08 04:30:19;;;;;;;114.68;59.45;;;;;;;11.90;79.92;95697.69;5058594;28;20023;-77
2022/11/08 04:32:44;;;;;;;122.45;69.35;;;;;;;11.74;79.85;95674.88;5072583;28;20039;-77
2022/11/08 04:35:10;;;;;;;125.70;71.70;;;;;;;11.65;80.43;95662.38;5072344;28;20027;-77
2022/11/08 04:37:35;;;;;;;125.43;67.45;;;;;;;11.88;80.41;95699.84;5067569;28;20024;-77
2022/11/08 04:40:01;;;;;;;114.05;61.55;;;;;;;11.26;80.80;95598.41;5056661;28;20036;-77
2022/11/08 04:42:26;;;;;;;116.55;63.30;;;;;;;11.73;80.79;95673.25;5090663;28;20024;-77
2022/11/08 04:44:51;;;;;;;105.00;58.58;;;;;;;11.84;80.58;95688.13;5067780;28;20094;-77
2022/11/08 04:47:17;;;;;;;92.78;53.15;;;;;;;11.85;80.50;95687.06;5051923;28;20506;-77
2022/11/08 04:49:42;;;;;;;97.88;50.72;;;;;;;11.77;80.28;95676.19;5055589;28;20149;-77
2022/11/08 04:52:08;;;;;;;92.95;50.95;;;;;;;11.89;80.33;95696.13;5090053;28;20020;-77
2022/11/08 04:54:33;;;;;;;93.32;51.83;;;;;;;11.99;80.21;95716.53;5071866;28;20062;-77
2022/11/08 04:56:59;;;;;;;96.30;50.50;;;;;;;11.64;79.99;95663.44;5088088;28;20028;-77
2022/11/08 04:59:24;;;;;;;97.43;50.17;;;;;;;11.89;80.53;95721.91;5072552;28;20162;-77
2022/11/08 05:01:49;;;;;;;95.53;51.67;;;;;;;11.89;80.74;95713.91;5070160;28;20415;-77
2022/11/08 05:04:15;;;;;;;95.65;52.10;;;;;;;11.97;80.75;95714.19;5075892;28;20034;-77
2022/11/08 05:06:40;;;;;;;90.57;51.70;;;;;;;12.06;80.69;95724.22;5050085;28;20033;-77
2022/11/08 05:09:09;;;;;;;93.43;49.80;;;;;;;11.69;80.94;95669.53;5062794;28;20029;-77
2022/11/08 05:11:35;;;;;;;91.35;52.05;;;;;;;11.76;80.74;95687.88;5078374;28;20033;-77
2022/11/08 05:14:00;;;;;;;84.95;48.65;;;;;;;11.80;80.55;95688.94;5076657;28;20564;-77
2022/11/08 05:16:29;;;;;;;88.10;51.38;;;;;;;11.83;80.23;95691.84;5051940;28;20080;-78
2022/11/08 05:18:54;;;;;;;90.38;50.30;;;;;;;11.81;80.43;95699.31;5054941;28;20059;-79
2022/11/08 05:24:09;;;;;;;87.15;50.58;;;;;;;11.96;80.16;95719.75;5059827;28;20043;-76
2022/11/08 05:26:37;;;;;;;88.93;50.00;;;;;;;11.60;80.58;95671.13;5063095;28;20026;-77
2022/11/08 05:29:03;;;;;;;99.10;53.67;;;;;;;11.44;80.72;95646.44;5034075;28;20144;-77
2022/11/08 05:31:28;;;;;;;90.15;52.75;;;;;;;11.59;80.70;95664.25;5059616;28;20806;-77
2022/11/08 05:33:54;;;;;;;91.05;50.33;;;;;;;11.91;81.11;95717.09;5039127;28;20032;-77
2022/11/08 05:36:20;;;;;;;96.40;52.50;;;;;;;11.88;81.41;95701.69;5047921;28;20142;-77
2022/11/08 05:38:45;;;;;;;93.75;50.22;;;;;;;11.69;80.88;95660.75;5061244;28;20402;-77
2022/11/08 05:41:17;;;;;;;98.22;49.47;;;;;;;11.15;80.87;95573.72;5042661;28;20032;-77
2022/11/08 05:43:44;;;;;;;89.55;49.95;;;;;;;11.97;80.86;95710.72;5037090;28;20028;-77
2022/11/08 05:46:10;;;;;;;91.75;51.28;;;;;;;11.85;80.94;95688.94;5044451;28;20407;-77
2022/11/08 05:48:35;;;;;;;99.55;52.97;;;;;;;11.77;81.09;95687.63;5046043;28;20102;-77
2022/11/08 05:51:01;;;;;;;88.30;50.10;;;;;;;12.05;81.26;95728.78;5046340;28;20040;-76
2022/11/08 05:53:26;;;;;;;93.10;48.95;;;;;;;12.01;80.78;95726.91;5060277;28;20032;-77
2022/11/08 05:56:01;;;;;;;92.28;51.08;;;;;;;12.13;81.07;95743.41;5040700;28;20059;-77
2022/11/08 05:58:27;;;;;;;94.90;50.90;;;;;;;11.98;81.93;95730.91;5042413;28;20510;-78
2022/11/08 06:01:14;;;;;;;103.90;50.85;;;;;;;12.09;81.63;95735.16;5055810;28;20052;-77
2022/11/08 06:03:40;;;;;;;83.20;47.90;;;;;;;12.09;81.78;95729.03;5041023;28;20153;-78
2022/11/08 06:06:11;;;;;;;94.95;50.15;;;;;;;11.93;81.16;95699.81;5054367;28;20063;-78
2022/11/08 06:08:38;;;;;;;89.75;48.45;;;;;;;12.07;81.33;95739.13;5042100;28;20141;-78
2022/11/08 06:11:05;;;;;;;88.93;49.53;;;;;;;11.61;81.41;95681.50;5058817;28;20036;-78
2022/11/08 06:13:31;;;;;;;87.85;49.25;;;;;;;11.75;81.44;95699.59;5025828;28;20105;-77
2022/11/08 06:16:11;;;;;;;100.63;51.08;;;;;;;12.12;81.17;95739.13;5026706;28;20072;-79
2022/11/08 06:18:37;;;;;;;99.82;52.00;;;;;;;11.92;81.65;95710.72;5027958;28;20409;-79
2022/11/08 06:21:05;;;;;;;95.80;51.38;;;;;;;12.26;81.72;95764.91;5028801;28;20113;-78
2022/11/08 06:23:31;;;;;;;103.05;50.60;;;;;;;12.14;81.40;95756.41;5030114;28;20410;-79
2022/11/08 06:25:57;;;;;;;93.57;50.95;;;;;;;11.81;81.46;95709.94;5041267;28;20025;-84
2022/11/08 06:28:23;;;;;;;82.75;48.92;;;;;;;12.01;81.53;95738.34;5038214;28;20024;-78
2022/11/08 06:30:49;;;;;;;93.35;48.50;;;;;;;12.24;82.01;95779.53;5033477;28;20029;-79
2022/11/08 06:33:15;;;;;;;92.30;50.95;;;;;;;11.68;81.76;95697.16;5032432;28;20064;-77
2022/11/08 06:35:40;;;;;;;94.78;50.30;;;;;;;11.90;82.10;95729.56;5037138;28;20052;-78
2022/11/08 06:38:06;;;;;;;81.55;44.40;;;;;;;11.75;82.11;95750.09;5024531;28;20159;-78
2022/11/08 06:40:32;;;;;;;78.68;44.78;;;;;;;12.02;81.97;95769.19;5031424;28;20070;-76
2022/11/08 06:42:58;;;;;;;77.28;44.30;;;;;;;12.12;81.46;95790.44;5031784;28;20036;-77
2022/11/08 06:45:27;;;;;;;79.88;43.00;;;;;;;11.89;81.83;95765.22;5037700;28;20107;-77
2022/11/08 06:47:57;;;;;;;74.20;43.38;;;;;;;11.65;81.26;95711.00;5028602;28;20037;-77
2022/11/08 06:50:22;;;;;;;84.53;44.95;;;;;;;11.98;81.54;95758.28;5034021;28;20025;-77
2022/11/08 06:52:54;;;;;;;77.32;44.63;;;;;;;12.15;81.37;95781.91;5030987;28;20505;-76
2022/11/08 06:55:20;;;;;;;83.57;44.20;;;;;;;12.00;81.75;95760.66;5033011;28;20791;-77
2022/11/08 06:57:45;;;;;;;79.63;45.05;;;;;;;12.11;81.93;95767.59;5037556;28;20036;-78
2022/11/08 07:00:11;;;;;;;81.82;42.95;;;;;;;11.99;81.61;95759.88;5034002;28;20029;-76
2022/11/08 07:02:37;;;;;;;81.95;44.30;;;;;;;12.43;81.64;95793.84;5026805;28;20033;-76
2022/11/08 07:05:02;;;;;;;84.53;42.35;;;;;;;12.19;81.49;95766.25;5027631;28;20116;-79
2022/11/08 07:07:27;;;;;;;79.95;43.90;;;;;;;11.82;81.69;95698.25;5026324;28;20115;-79
2022/11/08 07:09:53;;;;;;;83.53;44.67;;;;;;;12.36;82.19;95788.78;5034438;28;20120;-79
2022/11/08 07:12:18;;;;;;;71.47;41.97;;;;;;;11.74;81.56;95687.34;5020454;28;20097;-78
2022/11/08 07:14:44;;;;;;;72.70;42.50;;;;;;;12.07;81.65;95731.94;5025050;28;20468;-77
2022/11/08 07:17:09;;;;;;;82.47;42.67;;;;;;;12.43;81.83;95780.56;5028151;28;20167;-78
2022/11/08 07:19:34;;;;;;;79.43;43.47;;;;;;;12.49;81.12;95805.28;5059952;28;20036;-77
2022/11/08 07:22:00;;;;;;;83.50;43.85;;;;;;;12.23;81.34;95740.69;5057216;28;20466;-77
2022/11/08 07:24:25;;;;;;;85.65;44.85;;;;;;;12.54;81.15;95789.28;5030483;28;20041;-77
2022/11/08 07:26:51;;;;;;;79.18;42.03;;;;;;;12.50;81.04;95778.41;5056915;28;20100;-79
2022/11/08 07:29:16;;;;;;;65.05;37.10;;;;;;;12.55;80.25;95806.84;5057227;28;20106;-78
2022/11/08 07:31:41;;;;;;;79.10;42.35;;;;;;;12.47;80.28;95789.56;5055005;28;20064;-77
2022/11/08 07:34:07;;;;;;;79.55;41.35;;;;;;;12.58;80.61;95803.66;5031006;28;20521;-78
2022/11/08 07:36:32;;;;;;;74.57;40.20;;;;;;;12.64;80.51;95803.38;5030857;28;20452;-78
2022/11/08 07:38:58;;;;;;;77.30;40.78;;;;;;;12.33;80.10;95764.63;5052779;28;20058;-77
2022/11/08 07:41:23;;;;;;;77.38;42.50;;;;;;;12.31;80.83;95772.06;5056746;28;20032;-78
2022/11/08 07:43:48;;;;;;;92.95;44.88;;;;;;;12.06;81.02;95742.84;5049641;28;20028;-78
2022/11/08 07:46:14;;;;;;;85.72;44.08;;;;;;;12.57;81.00;95810.84;5034842;28;20036;-78
2022/11/08 07:48:39;;;;;;;81.15;43.95;;;;;;;12.29;81.16;95756.38;5046725;28;20032;-78
2022/11/08 07:51:05;;;;;;;77.40;43.00;;;;;;;12.54;80.65;95789.28;5031601;28;20063;-78
2022/11/08 07:53:30;;;;;;;78.70;41.75;;;;;;;12.73;80.80;95814.25;5028385;28;20388;-78
2022/11/08 07:55:57;;;;;;;73.85;41.40;;;;;;;12.55;80.63;95769.59;5030845;28;20024;-78
2022/11/08 07:58:22;;;;;;;79.90;42.28;;;;;;;12.66;80.93;95795.91;5029288;28;20033;-79
2022/11/08 08:00:48;;;;;;;92.80;46.40;;;;;;;12.39;81.02;95755.53;5053626;28;20716;-78
2022/11/08 08:03:14;;;;;;;97.22;45.58;;;;;;;12.44;80.92;95752.88;5053066;28;20518;-78
2022/11/08 08:05:44;;;;;;;78.10;43.95;;;;;;;12.24;80.84;95731.66;5047108;28;20048;-79
2022/11/08 08:08:11;;;;;;;89.07;44.78;;;;;;;12.23;80.27;95725.53;5032774;28;20032;-81
2022/11/08 08:10:38;;;;;;;89.47;47.88;;;;;;;12.60;80.76;95769.56;5029875;28;20062;-78
2022/11/08 08:13:05;;;;;;;87.55;45.17;;;;;;;12.50;80.67;95751.81;5040127;28;20190;-78
2022/11/08 08:15:30;;;;;;;96.47;47.42;;;;;;;12.46;80.59;95756.06;5030932;28;20052;-78
2022/11/08 08:17:59;;;;;;;72.10;42.15;;;;;;;11.89;80.05;95666.09;5037311;28;20040;-78
2022/11/08 08:20:24;;;;;;;81.88;42.97;;;;;;;12.55;79.79;95745.66;5030039;28;20118;-79
2022/11/08 08:22:51;;;;;;;97.90;48.40;;;;;;;12.49;79.76;95725.47;5056288;28;20036;-79
2022/11/08 08:25:17;;;;;;;90.10;44.42;;;;;;;13.11;79.84;95802.13;5035351;28;20031;-78
2022/11/08 08:27:50;;;;;;;91.47;43.83;;;;;;;12.76;79.39;95752.47;5034170;28;20115;-79
2022/11/08 08:30:16;;;;;;;82.05;42.47;;;;;;;13.25;79.20;95807.69;5037945;28;20032;-78
2022/11/08 08:32:43;;;;;;;87.30;45.05;;;;;;;13.14;78.93;95810.38;5052497;28;20503;-78
2022/11/08 08:35:09;;;;;;;78.88;39.88;;;;;;;13.10;78.59;95806.66;5037338;28;20068;-79
2022/11/08 08:37:34;;;;;;;82.32;38.83;;;;;;;12.91;78.65;95802.19;5042149;28;20122;-79
2022/11/08 08:40:00;;;;;;;73.82;38.28;;;;;;;12.60;78.51;95758.94;5056960;28;20032;-78
2022/11/08 08:42:25;;;;;;;75.10;39.67;;;;;;;12.97;79.97;95809.88;5053712;28;20035;-78
2022/11/08 08:44:50;;;;;;;69.63;38.10;;;;;;;12.85;79.09;95771.34;5060062;28;20119;-78
2022/11/08 08:47:16;;;;;;;70.53;39.00;;;;;;;12.39;79.76;95726.28;5046622;28;20658;-79
2022/11/08 08:49:41;;;;;;;70.82;39.55;;;;;;;12.99;79.30;95821.06;5039284;28;20491;-78
2022/11/08 08:52:07;;;;;;;81.72;40.25;;;;;;;12.33;78.50;95711.41;5044076;28;20169;-80
2022/11/08 08:54:33;;;;;;;70.53;38.85;;;;;;;12.83;78.30;95790.25;5035936;28;20032;-80
2022/11/08 08:56:58;;;;;;;77.70;39.45;;;;;;;12.87;78.41;95774.53;5052173;28;20551;-80
2022/11/08 08:59:23;;;;;;;63.00;36.70;;;;;;;13.11;78.19;95791.47;5043236;28;20048;-79
2022/11/08 09:01:49;;;;;;;75.43;38.20;;;;;;;12.93;78.78;95798.19;5020506;28;20047;-79
2022/11/08 09:04:14;;;;;;;64.97;36.85;;;;;;;12.77;78.94;95762.06;5040681;28;20033;-76
2022/11/08 09:06:40;;;;;;;74.32;39.75;;;;;;;13.01;78.62;95807.50;5034433;28;20770;-76
2022/11/08 09:09:05;;;;;;;66.18;38.33;;;;;;;13.03;78.46;95784.06;5029665;28;20115;-77
2022/11/08 09:11:31;;;;;;;71.25;37.80;;;;;;;13.01;78.77;95776.34;5047025;28;20110;-76
2022/11/08 09:13:56;;;;;;;72.43;39.28;;;;;;;13.05;78.01;95781.91;5029171;28;20135;-77
2022/11/08 09:16:21;;;;;;;70.45;38.53;;;;;;;13.17;77.66;95779.75;5049409;28;20110;-76
2022/11/08 09:18:47;;;;;;;74.50;38.78;;;;;;;13.34;77.19;95793.50;5034326;28;21669;-76
2022/11/08 09:21:12;;;;;;;74.63;39.08;;;;;;;13.45;77.40;95795.03;5031003;28;20573;-76
2022/11/08 09:23:40;;;;;;;62.50;36.85;;;;;;;13.01;77.35;95759.56;5055382;28;20087;-77
2022/11/08 09:26:05;;;;;;;67.20;38.60;;;;;;;13.27;77.37;95763.72;5051623;28;20024;-76
2022/11/08 09:28:33;;;;;;;62.20;35.38;;;;;;;13.50;76.29;95789.66;5034818;28;20785;-77
2022/11/08 09:31:01;;;;;;;62.30;35.42;;;;;;;13.59;76.50;95779.22;5035669;28;20063;-77
2022/11/08 09:33:26;;;;;;;61.42;35.60;;;;;;;13.42;75.29;95806.25;5058686;28;20445;-77
2022/11/08 09:35:52;;;;;;;59.63;35.28;;;;;;;13.10;76.51;95772.03;5050088;28;20037;-77
2022/11/08 09:38:18;;;;;;;59.85;35.42;;;;;;;13.15;77.42;95768.56;5049173;28;20830;-78
2022/11/08 09:40:59;;;;;;;66.45;33.60;;;;;;;13.42;75.56;95802.78;5028755;28;20425;-79
2022/11/08 09:43:38;;;;;;;59.78;35.78;;;;;;;13.35;75.11;95786.31;5032211;28;20041;-77
2022/11/08 09:46:08;;;;;;;68.25;35.55;;;;;;;13.33;75.88;95793.78;5035973;28;20141;-79
2022/11/08 09:48:41;;;;;;;61.05;34.13;;;;;;;13.56;75.68;95809.09;5036974;28;20029;-78
2022/11/08 09:51:17;;;;;;;66.57;33.88;;;;;;;13.20;75.26;95707.28;5040156;28;20028;-77
2022/11/08 09:53:52;;;;;;;63.75;34.13;;;;;;;13.82;74.28;95788.38;5053549;28;20047;-78
2022/11/08 09:56:24;;;;;;;65.57;33.38;;;;;;;13.98;73.44;95794.38;5037376;28;20036;-77
2022/11/08 09:58:53;;;;;;;;;;;;;;;14.00;73.89;95785.03;5056641;28;20407;-77
2022/11/08 10:01:21;;;;;;;65.90;35.13;;;;;;;13.92;73.98;95788.31;5046148;28;19920;-77
2022/11/08 10:03:51;;;;;;;86.70;39.78;;;;;;;13.70;73.76;95756.75;5035197;28;20063;-77
2022/11/08 10:06:34;;;;;;;73.30;34.97;;;;;;;14.02;73.77;95787.44;5035099;28;20028;-78
2022/11/08 10:09:14;;;;;;;70.45;36.97;;;;;;;13.22;74.19;95653.75;5038720;28;20118;-77
2022/11/08 10:12:05;;;;;;;59.45;35.45;;;;;;;14.05;73.31;95776.19;5054465;28;20140;-76
2022/11/08 10:14:59;;;;;;;66.03;35.83;;;;;;;14.16;74.31;95769.69;5045454;28;20075;-77
2022/11/08 10:17:39;;;;;;;61.05;34.67;;;;;;;14.23;73.52;95776.28;5037877;28;20568;-78
2022/11/08 10:20:24;;;;;;;58.75;35.08;;;;;;;14.14;73.93;95775.31;5039475;28;20081;-78
2022/11/08 10:22:58;;;;;;;67.40;35.08;;;;;;;14.01;72.56;95713.81;5041635;28;20059;-78
2022/11/08 10:25:38;;;;;;;63.85;34.80;;;;;;;14.14;71.15;95745.16;5040492;28;20035;-78
2022/11/08 10:28:06;;;;;;;65.32;32.97;;;;;;;14.37;71.61;95759.59;5054205;28;20141;-78
2022/11/08 10:30:35;;;;;;;59.50;33.20;;;;;;;13.84;71.33;95699.06;5062812;28;20162;-80
2022/11/08 10:33:01;;;;;;;68.72;34.35;;;;;;;14.11;72.12;95689.72;5048146;28;20044;-77
2022/11/08 10:35:51;;;;;;;56.35;34.05;;;;;;;14.68;71.89;95732.34;5027527;28;20040;-78
2022/11/08 10:38:30;;;;;;;66.85;32.90;;;;;;;14.54;70.44;95746.66;5035881;28;20100;-83
2022/11/08 10:41:24;;;;;;;63.03;34.70;;;;;;;14.82;71.35;95748.44;5049913;28;20706;-77
2022/11/08 10:44:00;;;;;;;64.35;35.25;;;;;;;14.80;71.71;95733.81;5057854;28;20127;-77
2022/11/08 10:46:38;;;;;;;58.80;33.78;;;;;;;14.92;69.06;95748.31;5030654;28;20021;-77
2022/11/08 10:49:13;;;;;;;51.72;31.35;;;;;;;14.32;69.05;95684.97;5043655;28;20040;-77
2022/11/08 10:51:38;;;;;;;53.08;31.85;;;;;;;14.27;69.10;95699.13;5056380;28;20109;-77
2022/11/08 10:54:04;;;;;;;55.95;31.48;;;;;;;13.95;70.05;95618.97;5042697;28;20027;-77
2022/11/08 10:56:29;;;;;;;50.38;30.83;;;;;;;14.51;68.63;95670.59;5034701;28;20475;-79
2022/11/08 10:58:55;;;;;;;50.30;30.45;;;;;;;15.20;67.25;95737.78;5042041;28;20044;-77
2022/11/08 11:01:25;;;;;;;54.45;31.63;;;;;;;15.05;67.10;95674.69;5055025;28;20033;-77
2022/11/08 11:03:52;;;;;;;60.00;31.73;;;;;;;15.28;66.26;95697.06;5055018;28;20500;-77
2022/11/08 11:06:31;;;;;;;57.50;31.48;;;;;;;15.55;65.63;95734.66;5058848;28;20070;-77
2022/11/08 11:09:02;;;;;;;63.53;32.75;;;;;;;15.13;66.75;95658.03;5049740;28;20663;-78
2022/11/08 11:11:30;;;;;;;51.50;30.50;;;;;;;15.29;64.75;95725.38;5052797;28;20132;-78
2022/11/08 11:14:17;;;;;;;56.60;30.75;;;;;;;14.93;66.17;95690.38;5037113;28;20051;-80
2022/11/08 11:17:12;;;;;;;48.85;27.73;;;;;;;15.07;64.30;95718.75;5037067;28;20061;-78
2022/11/08 11:19:44;;;;;;;48.58;28.00;;;;;;;15.16;65.36;95721.56;5035217;28;20029;-79
2022/11/08 11:22:13;;;;;;;40.80;22.42;;;;;;;14.98;62.49;95706.31;5037932;28;20176;-80
2022/11/08 11:25:01;;;;;;;40.88;24.75;;;;;;;14.54;64.41;95611.34;5046315;28;20044;-79
2022/11/08 11:27:36;;;;;;;41.78;23.52;;;;;;;14.89;62.12;95651.97;5037120;28;20548;-81
2022/11/08 11:30:24;;;;;;;41.95;23.52;;;;;;;15.62;62.32;95707.53;5042004;28;20060;-81
2022/11/08 11:33:03;;;;;;;39.72;22.90;;;;;;;15.38;61.24;95711.09;5022773;28;20072;-79
2022/11/08 11:35:39;;;;;;;34.60;19.35;;;;;;;15.02;59.75;95656.59;5031753;28;20414;-78
2022/11/08 11:38:30;;;;;;;37.47;21.85;;;;;;;15.21;60.81;95670.72;5036524;28;20494;-79
2022/11/08 11:41:03;;;;;;;52.08;23.42;;;;;;;15.53;61.07;95710.09;5009119;28;20093;-79
2022/11/08 11:43:36;;;;;;;41.25;24.75;;;;;;;15.64;60.85;95705.38;5037756;28;20040;-79
2022/11/08 11:46:13;;;;;;;35.90;21.95;;;;;;;15.54;59.84;95700.97;5041046;28;20032;-78
2022/11/08 11:48:48;;;;;;;38.45;21.95;;;;;;;15.19;58.72;95648.03;5032217;28;20056;-79